createdAt,value
2022-12-23T00:00:45.614Z,77.32
2022-12-23T00:03:16.556Z,79.13
2022-12-23T00:05:44.129Z,75.00
2022-12-23T00:08:11.590Z,74.68
2022-12-23T00:10:42.935Z,73.78
2022-12-23T00:13:30.736Z,71.80
2022-12-23T00:16:12.875Z,74.45
2022-12-23T00:18:41.856Z,75.40
2022-12-23T00:21:12.332Z,66.75
2022-12-23T00:23:42.318Z,72.97
2022-12-23T00:26:22.856Z,79.78
2022-12-23T00:28:51.055Z,65.35
2022-12-23T00:31:20.042Z,67.15
2022-12-23T00:33:49.578Z,78.25
2022-12-23T00:36:17.070Z,75.45
2022-12-23T00:39:03.770Z,66.20
2022-12-23T00:41:49.856Z,79.35
2022-12-23T00:44:17.376Z,73.25
2022-12-23T00:46:44.967Z,65.05
2022-12-23T00:49:34.845Z,75.05
2022-12-23T00:52:03.424Z,74.53
2022-12-23T00:54:32.011Z,76.95
2022-12-23T00:57:00.388Z,74.57
2022-12-23T00:59:28.001Z,67.28
2022-12-23T01:02:14.365Z,68.63
2022-12-23T01:05:00.332Z,69.63
2022-12-23T01:07:27.815Z,69.07
2022-12-23T01:09:55.479Z,70.18
2022-12-23T01:12:23.383Z,71.82
2022-12-23T01:14:51.104Z,69.53
2022-12-23T01:17:19.278Z,68.15
2022-12-23T01:19:46.839Z,71.85
2022-12-23T01:22:14.342Z,63.20
2022-12-23T01:24:41.997Z,62.13
2022-12-23T01:27:09.468Z,58.92
2022-12-23T01:29:37.038Z,66.05
2022-12-23T01:32:04.760Z,60.33
2022-12-23T01:34:36.766Z,73.20
2022-12-23T01:37:06.046Z,63.25
2022-12-23T01:39:33.630Z,67.38
2022-12-23T01:42:19.733Z,67.95
2022-12-23T01:45:02.157Z,71.55
2022-12-23T01:47:44.515Z,62.63
2022-12-23T01:50:17.112Z,68.03
2022-12-23T01:53:30.909Z,62.80
2022-12-23T01:56:13.614Z,58.75
2022-12-23T01:58:52.394Z,62.40
2022-12-23T02:01:38.774Z,64.10
2022-12-23T02:04:09.777Z,67.63
2022-12-23T02:06:59.207Z,68.25
2022-12-23T02:09:34.756Z,66.35
2022-12-23T02:12:38.895Z,62.08
2022-12-23T02:16:18.435Z,70.20
2022-12-23T02:19:12.430Z,64.95
2022-12-23T02:22:04.775Z,74.65
2022-12-23T02:24:35.141Z,69.28
2022-12-23T02:27:16.976Z,71.78
2022-12-23T02:30:15.635Z,73.53
2022-12-23T02:33:33.927Z,67.43
2022-12-23T02:36:09.951Z,77.20
2022-12-23T02:39:01.690Z,69.10
2022-12-23T02:41:41.412Z,61.33
2022-12-23T02:44:27.813Z,57.25
2022-12-23T02:47:04.240Z,64.65
2022-12-23T02:49:38.532Z,51.28
2022-12-23T02:52:13.840Z,54.33
2022-12-23T02:54:47.147Z,53.03
2022-12-23T02:57:19.709Z,53.75
2022-12-23T02:59:51.319Z,49.92
2022-12-23T03:02:19.766Z,44.40
2022-12-23T03:04:47.401Z,48.42
2022-12-23T03:07:23.803Z,48.85
2022-12-23T03:10:15.525Z,46.30
2022-12-23T03:13:09.631Z,44.05
2022-12-23T03:15:49.114Z,41.35
2022-12-23T03:18:58.458Z,43.67
2022-12-23T03:21:37.901Z,44.05
2022-12-23T03:24:22.356Z,38.70
2022-12-23T03:27:03.995Z,42.88
2022-12-23T03:29:49.955Z,43.13
2022-12-23T03:32:19.572Z,40.78
2022-12-23T03:34:50.237Z,39.97
2022-12-23T03:37:20.874Z,46.25
2022-12-23T03:40:06.531Z,43.17
2022-12-23T03:42:38.427Z,44.00
2022-12-23T03:45:38.141Z,39.58
2022-12-23T03:48:15.860Z,41.30
2022-12-23T03:50:46.417Z,43.38
2022-12-23T03:53:30.533Z,44.28
2022-12-23T03:56:13.744Z,45.70
2022-12-23T03:59:03.384Z,44.72
2022-12-23T04:01:39.896Z,51.28
2022-12-23T04:04:30.838Z,53.17
2022-12-23T04:07:04.990Z,47.33
2022-12-23T04:09:33.320Z,56.78
2022-12-23T04:12:00.912Z,64.82
2022-12-23T04:14:28.515Z,55.63
2022-12-23T04:16:58.678Z,59.50
2022-12-23T04:19:26.255Z,56.95
2022-12-23T04:21:56.995Z,64.57
2022-12-23T04:24:24.507Z,62.55
2022-12-23T04:26:51.999Z,68.88
2022-12-23T04:29:19.520Z,61.58
2022-12-23T04:31:47.060Z,59.45
2022-12-23T04:34:14.760Z,65.22
2022-12-23T04:36:44.043Z,62.40
2022-12-23T04:39:12.042Z,56.83
2022-12-23T04:41:39.518Z,60.97
2022-12-23T04:44:07.063Z,67.13
2022-12-23T04:46:34.607Z,66.22
2022-12-23T04:49:02.021Z,59.60
2022-12-23T04:51:29.520Z,70.75
2022-12-23T04:53:57.033Z,61.42
2022-12-23T04:56:24.483Z,59.90
2022-12-23T04:58:51.999Z,55.30
2022-12-23T05:01:19.482Z,59.70
2022-12-23T05:03:47.032Z,59.53
2022-12-23T05:06:14.496Z,53.20
2022-12-23T05:08:42.012Z,51.85
2022-12-23T05:11:09.445Z,50.65
2022-12-23T05:13:36.974Z,46.90
2022-12-23T05:16:04.737Z,49.50
2022-12-23T05:18:32.268Z,49.15
2022-12-23T05:20:59.749Z,55.40
2022-12-23T05:23:27.313Z,46.35
2022-12-23T05:25:54.893Z,53.58
2022-12-23T05:28:23.031Z,43.60
2022-12-23T05:30:57.332Z,47.28
2022-12-23T05:33:24.826Z,38.22
2022-12-23T05:35:52.288Z,36.22
2022-12-23T05:38:19.897Z,33.70
2022-12-23T05:40:48.340Z,31.58
2022-12-23T05:43:16.630Z,30.45
2022-12-23T05:45:44.753Z,31.00
2022-12-23T05:48:12.259Z,36.15
2022-12-23T05:50:40.454Z,34.80
2022-12-23T05:53:08.638Z,33.40
2022-12-23T05:55:36.550Z,33.65
2022-12-23T05:58:04.098Z,33.13
2022-12-23T06:00:31.776Z,27.88
2022-12-23T06:02:59.443Z,31.42
2022-12-23T06:05:27.111Z,32.20
2022-12-23T06:07:54.613Z,27.95
2022-12-23T06:10:22.063Z,26.75
2022-12-23T06:12:49.521Z,27.27
2022-12-23T06:15:17.259Z,33.42
2022-12-23T06:17:44.850Z,27.05
2022-12-23T06:20:19.952Z,33.22
2022-12-23T06:22:48.495Z,29.20
2022-12-23T06:25:15.999Z,26.08
2022-12-23T06:27:43.486Z,29.13
2022-12-23T06:30:14.256Z,28.58
2022-12-23T06:32:41.906Z,26.45
2022-12-23T06:35:09.886Z,31.27
2022-12-23T06:37:37.384Z,31.25
2022-12-23T06:40:05.586Z,38.75
2022-12-23T06:42:33.139Z,28.20
2022-12-23T06:45:00.599Z,28.92
2022-12-23T06:47:28.161Z,42.03
2022-12-23T06:49:55.828Z,36.55
2022-12-23T06:52:23.306Z,35.88
2022-12-23T06:54:50.844Z,36.67
2022-12-23T06:57:21.631Z,35.42
2022-12-23T06:59:49.826Z,39.25
2022-12-23T07:02:17.635Z,29.42
2022-12-23T07:04:45.295Z,31.52
2022-12-23T07:07:12.730Z,29.45
2022-12-23T07:09:40.222Z,33.17
2022-12-23T07:12:07.701Z,26.85
2022-12-23T07:14:35.212Z,28.38
2022-12-23T07:17:02.814Z,25.60
2022-12-23T07:19:30.368Z,23.85
2022-12-23T07:21:57.885Z,21.52
2022-12-23T07:24:25.394Z,26.20
2022-12-23T07:26:52.941Z,21.55
2022-12-23T07:29:20.381Z,19.05
2022-12-23T07:31:47.943Z,21.52
2022-12-23T07:34:15.726Z,21.90
2022-12-23T07:36:43.839Z,23.13
2022-12-23T07:39:11.349Z,18.65
2022-12-23T07:41:38.834Z,19.48
2022-12-23T07:44:13.371Z,19.83
2022-12-23T07:46:43.933Z,24.70
2022-12-23T07:49:14.366Z,24.92
2022-12-23T07:51:42.286Z,22.75
2022-12-23T07:54:14.196Z,24.63
2022-12-23T07:56:41.782Z,23.08
2022-12-23T07:59:12.031Z,21.60
2022-12-23T08:01:39.595Z,25.05
2022-12-23T08:04:07.169Z,22.38
2022-12-23T08:06:37.743Z,18.60
2022-12-23T08:09:06.638Z,25.10
2022-12-23T08:11:34.165Z,19.23
2022-12-23T08:14:01.622Z,20.73
2022-12-23T08:16:29.217Z,23.08
2022-12-23T08:18:56.743Z,23.23
2022-12-23T08:21:24.301Z,28.73
2022-12-23T08:23:52.331Z,27.95
2022-12-23T08:26:22.234Z,21.58
2022-12-23T08:28:53.500Z,25.38
2022-12-23T08:31:23.972Z,20.70
2022-12-23T08:33:55.325Z,21.40
2022-12-23T08:36:26.213Z,22.42
2022-12-23T08:38:57.161Z,18.80
2022-12-23T08:41:31.410Z,21.92
2022-12-23T08:43:59.429Z,19.67
2022-12-23T08:46:27.253Z,21.35
2022-12-23T08:48:55.175Z,22.75
2022-12-23T08:51:24.167Z,24.13
2022-12-23T08:53:59.567Z,27.08
2022-12-23T08:56:32.604Z,26.40
2022-12-23T08:59:00.781Z,25.58
2022-12-23T09:01:31.580Z,27.63
2022-12-23T09:04:01.925Z,27.95
2022-12-23T09:06:34.876Z,26.15
2022-12-23T09:09:02.519Z,28.83
2022-12-23T09:11:30.277Z,32.03
2022-12-23T09:14:02.702Z,31.98
2022-12-23T09:16:30.696Z,29.27
2022-12-23T09:18:58.362Z,33.95
2022-12-23T09:21:26.115Z,31.92
2022-12-23T09:23:53.609Z,36.92
2022-12-23T09:26:25.582Z,33.13
2022-12-23T09:28:53.230Z,31.05
2022-12-23T09:31:21.875Z,35.53
2022-12-23T09:33:52.071Z,35.70
2022-12-23T09:36:20.768Z,40.78
2022-12-23T09:38:53.098Z,36.38
2022-12-23T09:41:23.573Z,33.55
2022-12-23T09:44:15.663Z,38.78
2022-12-23T09:46:51.632Z,36.25
2022-12-23T09:49:23.136Z,40.83
2022-12-23T09:51:55.939Z,43.03
2022-12-23T09:54:29.761Z,40.15
2022-12-23T09:59:54.547Z,42.20
2022-12-23T10:05:20.906Z,58.38
2022-12-23T10:07:48.327Z,56.75
2022-12-23T10:10:29.511Z,71.70
2022-12-23T10:13:00.418Z,66.95
2022-12-23T10:15:48.461Z,72.20
2022-12-23T10:18:25.041Z,68.75
2022-12-23T10:21:07.643Z,71.95
2022-12-23T10:23:38.707Z,62.03
2022-12-23T10:26:17.407Z,70.28
2022-12-23T10:28:44.932Z,64.45
2022-12-23T10:34:38.638Z,63.90
2022-12-23T10:37:13.944Z,52.35
2022-12-23T10:39:57.454Z,60.65
2022-12-23T10:42:36.335Z,59.80
2022-12-23T10:45:48.238Z,54.72
2022-12-23T10:48:35.065Z,54.72
2022-12-23T10:51:15.393Z,54.95
2022-12-23T10:54:09.817Z,45.15
2022-12-23T10:56:38.828Z,49.43
2022-12-23T10:59:07.399Z,47.25
2022-12-23T11:01:35.059Z,49.83
2022-12-23T11:04:13.245Z,48.58
2022-12-23T11:06:45.952Z,46.88
2022-12-23T11:09:29.018Z,50.72
2022-12-23T11:12:05.432Z,47.50
2022-12-23T11:14:36.027Z,48.78
2022-12-23T11:17:05.406Z,49.58
2022-12-23T11:19:34.623Z,49.03
2022-12-23T11:22:02.433Z,50.45
2022-12-23T11:24:39.654Z,50.75
2022-12-23T11:27:16.072Z,45.20
2022-12-23T11:29:51.775Z,56.17
2022-12-23T11:32:26.814Z,58.00
2022-12-23T11:34:55.882Z,52.67
2022-12-23T11:37:30.092Z,54.28
2022-12-23T11:39:57.608Z,49.38
2022-12-23T11:42:30.123Z,47.88
2022-12-23T11:45:00.355Z,48.78
2022-12-23T11:47:41.187Z,49.35
2022-12-23T11:50:24.073Z,46.90
2022-12-23T11:59:42.338Z,42.15
2022-12-23T12:02:40.936Z,45.60
2022-12-23T12:19:27.099Z,41.40
2022-12-23T12:22:07.708Z,43.03
2022-12-23T12:24:57.512Z,37.55
2022-12-23T12:27:52.856Z,39.50
2022-12-23T12:30:28.903Z,35.70
2022-12-23T12:33:17.874Z,39.03
2022-12-23T12:36:22.960Z,43.17
2022-12-23T12:39:01.327Z,38.55
2022-12-23T12:41:51.912Z,39.08
2022-12-23T12:44:39.253Z,36.47
2022-12-23T12:50:32.521Z,38.20
2022-12-23T12:53:25.222Z,39.75
2022-12-23T12:56:05.500Z,35.30
2022-12-23T12:58:46.084Z,39.80
2022-12-23T13:01:54.839Z,43.67
2022-12-23T13:04:52.707Z,35.53
2022-12-23T13:11:26.438Z,36.25
2022-12-23T13:14:24.974Z,32.97
2022-12-23T13:17:30.561Z,37.15
2022-12-23T13:22:53.323Z,40.95
2022-12-23T13:25:27.040Z,38.58
2022-12-23T13:28:32.163Z,39.50
2022-12-23T13:31:35.118Z,41.30
2022-12-23T13:34:35.933Z,41.03
2022-12-23T13:37:45.755Z,38.10
2022-12-23T13:41:06.103Z,37.58
2022-12-23T13:44:47.689Z,34.13
2022-12-23T13:50:38.861Z,36.35
2022-12-23T13:53:18.199Z,41.42
2022-12-23T13:56:28.103Z,40.60
2022-12-23T13:58:59.344Z,38.03
2022-12-23T14:01:42.741Z,38.55
2022-12-23T14:04:36.411Z,43.17
2022-12-23T14:07:21.778Z,38.10
2022-12-23T14:12:38.416Z,41.95
2022-12-23T14:15:29.511Z,40.10
2022-12-23T14:18:18.387Z,40.55
2022-12-23T14:21:11.029Z,42.55
2022-12-23T14:27:14.363Z,44.20
2022-12-23T14:29:42.013Z,42.75
2022-12-23T14:32:36.389Z,39.83
2022-12-23T14:35:22.194Z,37.55
2022-12-23T14:38:08.516Z,45.28
2022-12-23T14:40:40.138Z,38.35
2022-12-23T14:43:23.528Z,40.95
2022-12-23T14:46:00.486Z,49.92
2022-12-23T14:48:37.156Z,51.47
2022-12-23T14:51:35.242Z,55.78
2022-12-23T14:54:03.172Z,52.55
2022-12-23T14:56:39.788Z,55.53
2022-12-23T14:59:19.299Z,54.88
2022-12-23T15:01:58.810Z,50.20
2022-12-23T15:04:29.558Z,67.13
2022-12-23T15:07:04.889Z,59.25
2022-12-23T15:09:38.200Z,57.55
2022-12-23T15:12:14.290Z,60.97
2022-12-23T15:14:52.559Z,60.22
2022-12-23T15:17:34.898Z,52.25
2022-12-23T15:20:12.406Z,59.65
2022-12-23T15:22:42.019Z,62.28
2022-12-23T15:25:32.164Z,65.38
2022-12-23T15:28:02.908Z,60.78
2022-12-23T15:30:36.486Z,60.60
2022-12-23T15:33:34.906Z,56.50
2022-12-23T15:35:57.237Z,58.35
2022-12-23T15:38:29.604Z,60.70
2022-12-23T15:41:14.050Z,56.65
2022-12-23T15:43:42.305Z,58.15
2022-12-23T15:46:23.455Z,61.13
2022-12-23T15:54:33.450Z,56.13
2022-12-23T15:57:02.529Z,65.28
2022-12-23T15:59:35.641Z,64.43
2022-12-23T16:05:37.818Z,58.58
2022-12-23T16:08:16.054Z,69.67
2022-12-23T16:11:12.116Z,66.20
2022-12-23T16:13:46.697Z,65.85
2022-12-23T16:16:42.478Z,67.25
2022-12-23T16:19:49.195Z,67.57
2022-12-23T16:22:31.172Z,64.22
2022-12-23T16:25:16.243Z,61.92
2022-12-23T16:27:58.115Z,61.72
2022-12-23T16:30:32.723Z,63.05
2022-12-23T16:33:22.095Z,61.50
2022-12-23T16:35:49.668Z,56.83
2022-12-23T16:38:21.603Z,61.83
2022-12-23T16:40:54.892Z,63.50
2022-12-23T16:43:24.387Z,61.58
2022-12-23T16:45:56.958Z,61.97
2022-12-23T16:48:37.369Z,65.35
2022-12-23T16:51:16.335Z,62.88
2022-12-23T16:53:43.901Z,67.03
2022-12-23T16:56:20.461Z,64.15
2022-12-23T16:58:48.418Z,65.93
2022-12-23T17:01:24.944Z,58.50
2022-12-23T17:03:52.742Z,64.45
2022-12-23T17:06:20.813Z,63.08
2022-12-23T17:08:49.042Z,56.88
2022-12-23T17:11:23.407Z,59.50
2022-12-23T17:13:51.237Z,56.88
2022-12-23T17:16:21.089Z,61.15
2022-12-23T17:18:49.702Z,62.33
2022-12-23T17:21:29.441Z,63.20
2022-12-23T17:24:05.027Z,73.55
2022-12-23T17:26:32.744Z,65.00
2022-12-23T17:29:03.584Z,70.00
2022-12-23T17:31:32.747Z,65.90
2022-12-23T17:34:01.198Z,65.53
2022-12-23T17:36:29.996Z,68.20
2022-12-23T17:38:57.579Z,68.47
2022-12-23T17:41:32.337Z,70.55
2022-12-23T17:44:01.679Z,71.30
2022-12-23T17:46:29.655Z,72.63
2022-12-23T17:49:03.413Z,68.53
2022-12-23T17:51:35.312Z,64.47
2022-12-23T17:54:04.649Z,65.20
2022-12-23T17:56:32.748Z,71.53
2022-12-23T17:59:00.255Z,73.70
2022-12-23T18:01:30.350Z,73.72
2022-12-23T18:03:59.927Z,71.88
2022-12-23T18:06:32.500Z,72.00
2022-12-23T18:09:02.902Z,70.25
2022-12-23T18:11:43.854Z,72.65
2022-12-23T18:14:22.842Z,78.00
2022-12-23T18:16:50.608Z,71.97
2022-12-23T18:19:20.512Z,68.97
2022-12-23T18:21:49.042Z,72.35
2022-12-23T18:24:17.012Z,67.50
2022-12-23T18:26:45.554Z,65.47
2022-12-23T18:29:13.088Z,69.85
2022-12-23T18:31:51.354Z,71.40
2022-12-23T18:34:20.387Z,69.57
2022-12-23T18:36:48.845Z,71.90
2022-12-23T18:39:20.140Z,69.95
2022-12-23T18:41:50.746Z,60.85
2022-12-23T18:44:20.836Z,55.47
2022-12-23T18:46:49.302Z,68.55
2022-12-23T18:49:25.892Z,65.80
2022-12-23T18:51:54.364Z,77.80
2022-12-23T18:54:22.070Z,68.65
2022-12-23T18:56:49.746Z,74.57
2022-12-23T18:59:24.290Z,74.88
2022-12-23T19:01:57.420Z,78.80
2022-12-23T19:04:26.278Z,77.65
2022-12-23T19:06:55.759Z,81.55
2022-12-23T19:09:25.024Z,77.70
2022-12-23T19:11:57.042Z,76.40
2022-12-23T19:14:24.503Z,72.35
2022-12-23T19:16:52.829Z,66.40
2022-12-23T19:19:21.692Z,73.32
2022-12-23T19:21:49.485Z,72.10
2022-12-23T19:24:17.387Z,70.28
2022-12-23T19:26:51.285Z,65.50
2022-12-23T19:29:21.591Z,65.45
2022-12-23T19:31:49.619Z,69.85
2022-12-23T19:34:20.174Z,69.10
2022-12-23T19:36:50.780Z,73.57
2022-12-23T19:39:21.883Z,72.13
2022-12-23T19:41:49.670Z,75.25
2022-12-23T19:44:19.805Z,73.93
2022-12-23T19:46:49.083Z,73.07
2022-12-23T19:49:20.494Z,77.90
2022-12-23T19:51:49.212Z,75.40
2022-12-23T19:54:18.496Z,70.72
2022-12-23T19:56:47.068Z,69.03
2022-12-23T19:59:14.589Z,71.53
2022-12-23T20:01:42.444Z,68.53
2022-12-23T20:04:10.426Z,67.93
2022-12-23T20:06:39.325Z,72.22
2022-12-23T20:09:08.863Z,68.95
2022-12-23T20:11:39.871Z,70.03
2022-12-23T20:14:08.263Z,64.60
2022-12-23T20:16:39.616Z,68.88
2022-12-23T20:19:11.012Z,70.35
2022-12-23T20:21:40.614Z,67.60
2022-12-23T20:24:09.833Z,60.05
2022-12-23T20:26:37.423Z,65.40
2022-12-23T20:29:05.584Z,73.55
2022-12-23T20:31:35.657Z,62.47
2022-12-23T20:34:05.537Z,65.90
2022-12-23T20:36:35.657Z,66.30
2022-12-23T20:39:04.304Z,68.05
2022-12-23T20:41:33.107Z,72.57
2022-12-23T20:46:48.812Z,65.90
2022-12-23T20:49:16.490Z,67.80
2022-12-23T20:51:49.976Z,72.05
2022-12-23T20:54:24.956Z,70.05
2022-12-23T20:56:55.498Z,75.75
2022-12-23T20:59:26.236Z,78.32
2022-12-23T21:02:01.738Z,69.80
2022-12-23T21:04:29.375Z,68.38
2022-12-23T21:06:56.909Z,68.40
2022-12-23T21:09:27.164Z,75.38
2022-12-23T21:11:55.145Z,66.30
2022-12-23T21:14:24.864Z,72.10
2022-12-23T21:16:52.817Z,66.25
2022-12-23T21:19:23.365Z,70.13
2022-12-23T21:21:51.825Z,68.57
2022-12-23T21:24:20.746Z,69.45
2022-12-23T21:26:55.713Z,74.55
2022-12-23T21:29:24.629Z,75.80
2022-12-23T21:31:52.468Z,77.50
2022-12-23T21:34:20.406Z,76.78
2022-12-23T21:36:48.053Z,74.82
2022-12-23T21:39:17.363Z,71.80
2022-12-23T21:41:51.547Z,78.45
2022-12-23T21:44:19.221Z,74.40
2022-12-23T21:46:46.892Z,74.57
2022-12-23T21:49:14.433Z,77.03
2022-12-23T21:51:42.276Z,71.07
2022-12-23T21:54:11.263Z,74.20
2022-12-23T21:56:39.609Z,65.13
2022-12-23T21:59:11.458Z,80.25
2022-12-23T22:01:39.384Z,76.22
2022-12-23T22:04:07.683Z,79.40
2022-12-23T22:06:38.596Z,76.10
2022-12-23T22:09:07.715Z,67.63
2022-12-23T22:11:36.593Z,69.72
2022-12-23T22:14:06.475Z,69.10
2022-12-23T22:16:35.613Z,62.15
2022-12-23T22:19:09.293Z,68.25
2022-12-23T22:21:37.668Z,74.82
2022-12-23T22:24:05.706Z,78.63
2022-12-23T22:26:34.357Z,69.25
2022-12-23T22:29:04.338Z,70.95
2022-12-23T22:31:40.314Z,66.75
2022-12-23T22:34:18.155Z,76.43
2022-12-23T22:36:46.045Z,77.63
2022-12-23T22:39:21.028Z,76.85
2022-12-23T22:41:50.879Z,74.40
2022-12-23T22:44:19.320Z,77.68
2022-12-23T22:46:49.422Z,73.57
2022-12-23T22:49:17.778Z,73.15
2022-12-23T22:51:45.711Z,75.05
2022-12-23T22:54:13.371Z,70.18
2022-12-23T22:56:40.817Z,75.95
2022-12-23T22:59:17.923Z,72.82
2022-12-23T23:01:49.552Z,70.45
2022-12-23T23:04:20.011Z,64.38
2022-12-23T23:06:47.633Z,65.82
2022-12-23T23:09:18.189Z,70.47
2022-12-23T23:11:48.322Z,73.00
2022-12-23T23:14:16.987Z,69.85
2022-12-23T23:16:44.966Z,66.88
2022-12-23T23:19:15.635Z,62.33
2022-12-23T23:21:53.545Z,67.18
2022-12-23T23:24:22.252Z,60.25
2022-12-23T23:26:52.593Z,66.10
2022-12-23T23:29:20.163Z,66.85
2022-12-23T23:31:47.709Z,78.97
2022-12-23T23:34:15.464Z,70.00
2022-12-23T23:36:43.181Z,67.22
2022-12-23T23:39:14.185Z,71.25
2022-12-23T23:41:42.469Z,66.40
2022-12-23T23:44:11.322Z,66.63
2022-12-23T23:46:39.513Z,71.55
2022-12-23T23:49:06.977Z,73.35
2022-12-23T23:51:34.530Z,72.70
2022-12-23T23:54:02.155Z,70.20
2022-12-23T23:56:37.531Z,69.35
2022-12-23T23:59:06.448Z,68.78
